Nearby METAR Reports

 

KLWM - Lawrence,MA, USA
Distance from station: NE 12mi, 19km
Updated: Tue, 23-May-2017 3:54pm EDT
Clear
Clear
 Wind from NW
Wind: NW 6 mph , 9 km/h
Temperature: 70°F , 21°C
Dew Point: 48°F , 9°C
Humidity: 46%
Barometer: 29.85 inHg , 1010.8 hPa
Clouds: Clear
Visibility: 10 miles , 16 km
2017/05/23 19:54 KLWM 231954Z 31005KT 10SM CLR 21/09 A2985 RMK AO2 SLP107 T02060094
KBED - Bedford,MA, USA
Distance from station: SSE 12mi, 19km
Updated: Tue, 23-May-2017 3:56pm EDT
Overcast
Overcast
 Wind from WNW
Wind: WNW 7 mph , 11 km/h
Temperature: 68°F , 20°C
Dew Point: 46°F , 8°C
Humidity: 46%
Barometer: 29.83 inHg , 1010.2 hPa
Clouds: Overcast
Visibility: 10 miles , 16 km
Cloud details: Overcast 20000 ft
2017/05/23 19:56 KBED 231956Z 30006KT 10SM OVC200 20/08 A2983 RMK AO2 SLP112 T02000083

Metar display script from Saratoga-Weather.org